Time;durP1;ratioP1;P1;durP2;ratioP2;P2;SDS_P1;SDS_P2;PMS_P1;PMS_P2;Temp;Humidity;BMP_temperature;BMP_pressure;BME280_temperature;BME280_humidity;BME280_pressure;Samples;Min_cycle;Max_cycle;Signal;HPM_P1;HPM_P2
2022/09/29 00:00:31;;;;;;;4.63;2.38;;;;;;;;;;4923713;29;20408;-89
2022/09/29 00:03:19;;;;;;;3.20;1.80;;;;;;;;;;4919851;29;20039;-89
2022/09/29 00:06:10;;;;;;;3.55;1.75;;;;;;;;;;4913345;29;20087;-88
2022/09/29 00:09:05;;;;;;;4.50;2.20;;;;;;;;;;4923983;29;20043;-89
2022/09/29 00:11:53;;;;;;;2.53;1.70;;;;;;;;;;4918127;29;20063;-90
2022/09/29 00:14:52;;;;;;;7.88;1.95;;;;;;;;;;4917859;29;20084;-89
2022/09/29 00:17:38;;;;;;;3.08;1.83;;;;;;;;;;4907833;29;20124;-90
2022/09/29 00:20:24;;;;;;;2.42;1.92;;;;;;;;;;4917977;29;20070;-89
2022/09/29 00:23:16;;;;;;;3.70;2.30;;;;;;;;;;4918297;29;20051;-88
2022/09/29 00:26:09;;;;;;;4.32;2.42;;;;;;;;;;4913219;29;20042;-89
2022/09/29 00:28:55;;;;;;;3.40;2.08;;;;;;;;;;4904226;29;20119;-89
2022/09/29 00:31:40;;;;;;;3.92;2.08;;;;;;;;;;4917744;29;20038;-89
2022/09/29 00:34:25;;;;;;;4.03;1.90;;;;;;;;;;4918162;29;20038;-89
2022/09/29 00:37:10;;;;;;;2.50;1.80;;;;;;;;;;4917316;29;20087;-90
2022/09/29 00:39:57;;;;;;;3.13;2.22;;;;;;;;;;4917552;29;20040;-90
2022/09/29 00:43:00;;;;;;;6.10;3.42;;;;;;;;;;4917383;29;20087;-89
2022/09/29 00:45:45;;;;;;;2.50;1.63;;;;;;;;;;4917182;29;20446;-88
2022/09/29 00:48:31;;;;;;;3.08;1.85;;;;;;;;;;4917781;29;20405;-89
2022/09/29 00:51:24;;;;;;;5.65;2.05;;;;;;;;;;4917628;29;20039;-89
2022/09/29 00:54:12;;;;;;;4.10;1.98;;;;;;;;;;4905349;29;20067;-89
2022/09/29 00:56:58;;;;;;;3.95;2.30;;;;;;;;;;4917182;29;20042;-90
2022/09/29 00:59:50;;;;;;;8.30;2.58;;;;;;;;;;4916917;29;20157;-88
2022/09/29 01:02:54;;;;;;;4.47;2.65;;;;;;;;;;4917409;29;20067;-89
2022/09/29 01:05:42;;;;;;;3.35;1.73;;;;;;;;;;4917150;29;20186;-90
2022/09/29 01:08:45;;;;;;;3.75;1.95;;;;;;;;;;4909692;29;20516;-90
2022/09/29 01:11:30;;;;;;;3.88;2.38;;;;;;;;;;4914918;29;20111;-89
2022/09/29 01:14:19;;;;;;;2.97;1.67;;;;;;;;;;4917399;29;20453;-89
2022/09/29 01:17:07;;;;;;;5.03;2.58;;;;;;;;;;4916952;29;20038;-89
2022/09/29 01:19:52;;;;;;;4.97;2.42;;;;;;;;;;4916155;29;20059;-89
2022/09/29 01:22:54;;;;;;;2.88;1.75;;;;;;;;;;4917129;29;20043;-89
2022/09/29 01:25:44;;;;;;;3.88;2.30;;;;;;;;;;4905144;29;20043;-92
2022/09/29 01:29:21;;;;;;;2.90;1.77;;;5.90;99.90;;;;;;4916879;29;20055;-89
2022/09/29 01:32:26;;;;;;;3.17;1.95;;;;;;;;;;4916829;29;20047;-89
2022/09/29 01:35:14;;;;;;;2.88;1.92;;;;;;;;;;4916682;29;20043;-89
2022/09/29 01:38:14;;;;;;;3.83;1.92;;;;;;;;;;4916483;29;20043;-90
2022/09/29 01:41:15;;;;;;;3.22;1.80;;;;;;;;;;4904367;29;20043;-89
2022/09/29 01:44:16;;;;;;;2.92;2.08;;;;;;;;;;4912271;29;20109;-89
2022/09/29 01:49:45;;;;;;;3.35;2.17;;;;;;;;;;4784404;27;10710269;-87
2022/09/29 01:52:40;;;;;;;4.30;2.45;;;;;;;;;;5135858;27;20046;-87
2022/09/29 01:55:38;;;;;;;4.65;2.08;;;;;;;;;;5135733;27;20076;-87
2022/09/29 01:58:36;;;;;;;5.30;2.47;;;;;;;;;;5126576;27;20516;-87
2022/09/29 02:01:26;;;;;;;4.18;2.28;;;;;;;;;;5122816;27;20118;-87
2022/09/29 02:04:35;;;;;;;3.40;2.20;;;;;;;;;;5135480;27;20157;-87
2022/09/29 02:07:22;;;;;;;2.60;1.63;;;;;;;;;;5135475;27;20038;-86
2022/09/29 02:10:10;;;;;;;3.90;1.95;;;;;;;;;;5129554;27;20572;-91
2022/09/29 02:12:55;;;;;;;4.47;2.40;;;;;;;;;;5115214;27;20042;-90
2022/09/29 02:15:45;;;;;;;2.70;1.65;;;;;;;;;;5135805;27;20331;-90
2022/09/29 02:18:34;;;;;;;2.97;2.00;;;;;;;;;;5130833;27;20046;-90
2022/09/29 02:21:19;;;;;;;3.58;1.95;;;;;;;;;;5122702;28;20038;-90
2022/09/29 02:24:06;;;;;;;3.67;1.73;;;;;;;;;;5114503;28;20079;-90
2022/09/29 02:26:58;;;;;;;3.33;1.90;;;;;;;;;;5117666;27;20428;-92
2022/09/29 02:29:48;;;;;;;5.43;2.00;;;;;;;;;;5142676;27;20493;-90
2022/09/29 02:32:35;;;;;;;2.85;1.85;;;;;;;;;;5115272;28;20536;-90
2022/09/29 02:35:22;;;;;;;3.65;2.40;;;;;;;;;;5129114;27;20053;-91
2022/09/29 02:38:11;;;;;;;3.92;2.10;;;;;;;;;;5126664;27;20156;-90
2022/09/29 02:41:15;;;;;;;3.70;2.13;;;;;;;;;;5114203;28;20042;-90
2022/09/29 02:44:26;;;;;;;2.72;1.42;;;;;;;;;;5114109;27;20039;-89
2022/09/29 02:47:44;;;;;;;;;;;;;;;;;;;;;
2022/09/29 02:50:36;;;;;;;3.53;1.63;;;;;;;;;;5146050;27;20046;-91
2022/09/29 02:53:23;;;;;;;4.43;2.03;;;;;;;;;;5114440;28;20034;-90
2022/09/29 02:56:30;;;;;;;3.60;2.28;;;;;;;;;;5120507;27;20046;-89
2022/09/29 02:59:19;;;;;;;3.28;1.98;;;;;;;;;;5126941;27;20078;-90
2022/09/29 03:02:06;;;;;;;3.20;2.10;;;;;;;;;;5113586;27;20159;-90
2022/09/29 03:04:51;;;;;;;5.47;2.13;;;;;;;;;;5086372;28;20047;-89
2022/09/29 03:07:38;;;;;;;2.88;2.00;;;;;;;;;;5100274;28;20078;-90
2022/09/29 03:10:33;;;;;;;3.85;2.33;;;;;;;;;;5102728;28;20039;-91
2022/09/29 03:13:20;;;;;;;6.03;2.20;;;;;;;;;;5114282;27;20070;-91
2022/09/29 03:16:08;;;;;;;3.65;2.17;;;;;;;;;;5112901;27;20062;-90
2022/09/29 03:18:58;;;;;;;3.55;2.10;;;;;;;;;;5120851;27;20510;-90
2022/09/29 03:21:46;;;;;;;4.88;2.08;;;;;;;;;;5093095;27;20047;-90
2022/09/29 03:24:33;;;;;;;3.65;2.15;;;;;;;;;;5106402;27;20045;-91
2022/09/29 03:27:20;;;;;;;4.32;2.53;;;;;;;;;;5085535;28;20039;-89
2022/09/29 03:30:05;;;;;;;4.78;2.25;;;;;;;;;;5099628;28;20038;-91
2022/09/29 03:32:53;;;;;;;3.90;2.28;;;;;;;;;;5101525;28;20046;-90
2022/09/29 03:35:47;;;;;;;5.35;2.38;;;;;;;;;;5105199;28;20446;-90
2022/09/29 03:38:35;;;;;;;6.22;2.22;;;;;;;;;;5099912;28;20043;-90
2022/09/29 03:41:31;;;;;;;3.65;2.17;;;;;;;;;;5110156;27;20046;-91
2022/09/29 03:44:16;;;;;;;3.70;2.17;;;;;;;;;;5106439;27;20083;-90
2022/09/29 03:47:01;;;;;;;4.57;2.47;;;;;;;;;;5120042;27;20084;-94
2022/09/29 03:49:56;;;;;;;3.22;2.20;;;;;;;;;;5099499;28;20065;-90
2022/09/29 03:52:59;;;;;;;6.22;2.38;;;;;;;;;;5113147;28;20441;-90
2022/09/29 03:55:49;;;;;;;7.90;2.58;;;;;;;;;;5110806;28;20043;-91
2022/09/29 03:58:41;;;;;;;3.72;2.28;;;;;;;;;;5114100;28;20038;-90
2022/09/29 04:01:36;;;;;;;;;;;;;;;;;;;;;
2022/09/29 04:04:26;;;;;;;4.15;2.20;;;;;;;;;;5093814;28;20028;-90
2022/09/29 04:07:20;;;;;;;5.10;2.58;;;;;;;;;;5100456;28;20035;-90
2022/09/29 04:10:08;;;;;;;3.97;2.47;;;;;;;;;;5094926;28;20051;-93
2022/09/29 04:12:53;;;;;;;2.92;1.98;;;;;;;;;;5106731;28;20077;-90
2022/09/29 04:15:42;;;;;;;4.47;2.25;;;;;;;;;;5102111;28;20112;-91
2022/09/29 04:18:30;;;;;;;5.32;2.38;;;;;;;;;;5113135;28;20110;-90
2022/09/29 04:21:20;;;;;;;5.30;2.45;;;;;;;;;;5113091;28;20042;-91
2022/09/29 04:24:07;;;;;;;5.45;2.33;;;;;;;;;;5112444;28;20038;-91
2022/09/29 04:26:57;;;;;;;4.57;2.85;;;;;;;;;;5092803;28;20109;-91
2022/09/29 04:29:44;;;;;;;4.43;3.33;;;;;;;;;;5098321;28;20043;-90
2022/09/29 04:32:46;;;;;;;5.25;3.22;;;;;;;;;;5095262;28;20047;-91
2022/09/29 04:35:31;;;;;;;4.75;2.97;;;;;;;;;;5096080;28;20433;-90
2022/09/29 04:38:18;;;;;;;5.63;2.80;;;;;;;;;;5100702;28;20082;-92
2022/09/29 04:41:03;;;;;;;4.63;3.15;;;;;;;;;;5086278;28;20039;-90
2022/09/29 04:43:50;;;;;;;3.15;2.22;;;;;;;;;;5110042;28;20030;-93
2022/09/29 04:46:39;;;;;;;5.35;3.63;;;;;;;;;;5099592;28;20503;-91
2022/09/29 04:49:32;;;;;;;4.15;2.28;;;;;;;;;;5104448;28;20106;-90
2022/09/29 04:52:33;;;;;;;3.90;2.53;;;;;;;;;;5090901;28;20031;-90
2022/09/29 04:55:36;;;;;;;4.63;2.60;;;;;;;;;;5080845;28;20043;-91
2022/09/29 04:58:26;;;;;;;4.97;2.28;;;;;;;;;;5102750;28;20560;-91
2022/09/29 05:01:16;;;;;;;4.10;2.65;;;;;;;;;;5093119;28;20083;-92
2022/09/29 05:04:01;;;;;;;5.82;2.60;;;;;;;;;;5104202;28;20035;-91
2022/09/29 05:06:46;;;;;;;4.60;2.58;;;;;;;;;;5103524;28;20085;-92
2022/09/29 05:09:38;;;;;;;5.22;2.78;;;;;;;;;;5094866;28;20111;-92
2022/09/29 05:12:34;;;;;;;6.05;3.20;;;;;;;;;;5102274;28;20031;-92
2022/09/29 05:15:25;;;;;;;4.13;2.45;;;;;;;;;;5100070;28;20108;-92
2022/09/29 05:18:19;;;;;;;5.05;3.33;;;;;;;;;;5085832;28;20115;-92
2022/09/29 05:21:12;;;;;;;5.53;2.70;;;;;;;;;;5100215;28;20031;-91
2022/09/29 05:23:59;;;;;;;6.03;3.20;;;;;;;;;;5101815;28;20051;-93
2022/09/29 05:26:47;;;;;;;5.50;3.75;;;;;;;;;;5092815;28;20046;-92
2022/09/29 05:29:40;;;;;;;4.57;2.65;;;;;;;;;;5094079;28;20050;-90
2022/09/29 05:32:35;;;;;;;;;;;;;;;;;;;;;
2022/09/29 05:35:20;;;;;;;5.57;2.67;;;;;;;;;;5102152;28;20031;-92
2022/09/29 05:38:07;;;;;;;8.77;2.83;;;;;;;;;;5098800;28;20035;-92
2022/09/29 05:40:56;;;;;;;6.53;2.50;;;;;;;;;;5085612;28;20043;-91
2022/09/29 05:43:44;;;;;;;4.15;2.80;;;;;;;;;;5082387;28;20060;-91
2022/09/29 05:46:39;;;;;;;;;;;;;;;;;;;;;
2022/09/29 05:49:28;;;;;;;5.40;2.90;;;;;;;;;;5114577;28;20066;-91
2022/09/29 05:52:13;;;;;;;3.80;2.35;;;;;;;;;;5112158;28;20035;-91
2022/09/29 05:54:57;;;;;;;5.05;2.45;;;;;;;;;;5103820;28;20046;-89
2022/09/29 05:58:06;;;;;;;3.67;2.25;;;;;;;;;;5109871;28;20030;-90
2022/09/29 06:00:55;;;;;;;4.07;2.03;;;;;;;;;;5104880;28;20035;-89
2022/09/29 06:03:46;;;;;;;3.63;2.20;;;;;;;;;;5111467;28;20030;-89
2022/09/29 06:06:35;;;;;;;4.50;2.78;;;;;;;;;;5110485;28;20034;-89
2022/09/29 06:09:22;;;;;;;4.82;3.08;;;;;;;;;;5105821;28;20042;-89
2022/09/29 06:12:12;;;;;;;5.68;2.55;;;;;;;;;;5106101;28;20439;-91
2022/09/29 06:14:59;;;;;;;6.90;2.70;;;;;;;;;;5113722;28;20038;-89
2022/09/29 06:17:44;;;;;;;5.10;3.10;;;;;;;;;;5096694;28;20042;-89
2022/09/29 06:20:37;;;;;;;4.68;2.92;;;;;;;;;;5103905;28;20538;-87
2022/09/29 06:23:21;;;;;;;4.72;2.85;;;;;;;;;;5111419;28;20520;-88
2022/09/29 06:26:10;;;;;;;4.72;2.42;;;;;;;;;;5108034;28;20035;-90
2022/09/29 06:28:58;;;;;;;4.72;3.13;;;;;;;;;;5111391;28;20498;-90
2022/09/29 06:31:43;;;;;;;6.30;3.05;;;;;;;;;;5114006;28;20042;-88
2022/09/29 06:34:30;;;;;;;7.07;3.38;;;;;;;;;;5100754;28;20077;-88
2022/09/29 06:40:22;;;;;;;8.15;2.83;;;;;;;;;;5116410;28;20043;-89
2022/09/29 06:43:11;;;;;;;4.90;3.72;;;;;;;;;;5092428;28;20039;-90
2022/09/29 06:45:58;;;;;;;5.35;2.83;;;;;;;;;;5115194;27;20084;-89
2022/09/29 06:48:53;;;;;;;6.35;4.28;;;;;;;;;;5103385;28;20532;-89
2022/09/29 06:51:48;;;;;;;;;;;;;;;;;;;;;
2022/09/29 06:54:35;;;;;;;7.43;4.35;;;;;;;;;;5115846;28;20061;-90
2022/09/29 06:57:22;;;;;;;7.55;4.15;;;;;;;;;;5111914;27;20510;-89
2022/09/29 07:00:09;;;;;;;6.65;4.15;;;;;;;;;;5100611;28;20096;-89
2022/09/29 07:02:54;;;;;;;8.57;5.22;;;;;;;;;;5100580;28;20532;-89
2022/09/29 07:05:44;;;;;;;9.63;4.22;;;;;;;;;;5103266;28;20081;-88
2022/09/29 07:08:43;;;;;;;7.28;4.05;;;;;;;;;;5103613;28;20073;-90
2022/09/29 07:11:39;;;;;;;9.48;4.97;;;;;;;;;;5103971;27;20085;-89
2022/09/29 07:14:31;;;;;;;8.02;4.80;;;;;;;;;;5093868;28;20050;-88
2022/09/29 07:17:18;;;;;;;8.10;4.40;;;;;;;;;;5100545;28;20034;-90
2022/09/29 07:20:08;;;;;;;8.27;3.90;;;;;;;;;;5114719;27;20506;-90
2022/09/29 07:22:53;;;;;;;9.57;5.07;;;;;;;;;;5099997;28;20081;-89
2022/09/29 07:25:53;;;;;;;;;;;;;;;;;;;;;
2022/09/29 07:28:42;;;;;;;8.32;5.55;;;;;;;;;;5121350;27;20034;-89
2022/09/29 07:31:34;;;;;;;10.80;5.13;;;;;;;;;;5120872;27;20038;-91
2022/09/29 07:34:24;;;;;;;8.23;4.68;;;;;;;;;;5100054;28;20031;-89
2022/09/29 07:37:14;;;;;;;7.22;4.68;;;;;;;;;;5104999;27;20087;-89
2022/09/29 07:40:04;;;;;;;6.63;4.45;;;;;;;;;;5114578;28;20038;-90
2022/09/29 07:42:50;;;;;;;6.72;4.70;;;;;;;;;;5106587;28;20041;-91
2022/09/29 07:45:46;;;;;;;6.07;4.05;;;;;;;;;;5124066;27;20031;-89
2022/09/29 07:48:59;;;;;;;6.18;4.28;;;;;;;;;;5113878;27;20045;-89
2022/09/29 07:51:44;;;;;;;5.80;3.60;;;;;;;;;;5112097;27;20049;-89
2022/09/29 07:54:39;;;;;;;6.93;3.95;;;;;;;;;;5113495;28;20039;-92
2022/09/29 07:57:30;;;;;;;5.30;3.95;;;;;;;;;;5103215;28;20081;-90
2022/09/29 08:00:16;;;;;;;5.35;3.47;;;;;;;;;;5085382;28;20051;-90
2022/09/29 08:03:15;;;;;;;;;;;;;;;;;;;;;
2022/09/29 08:06:03;;;;;;;5.65;3.42;;;;;;;;;;5118496;27;20030;-91
2022/09/29 08:09:04;;;;;;;6.13;3.97;;;;;;;;;;5119587;27;20118;-91
2022/09/29 08:11:54;;;;;;;5.35;3.58;;;;;;;;;;5113835;28;20043;-92
2022/09/29 08:14:50;;;;;;;;;;;;;;;;;;;;;
2022/09/29 08:17:43;;;;;;;5.70;3.40;;;;;;;;;;5114947;28;20180;-90
2022/09/29 08:20:30;;;;;;;5.25;3.58;;;;;;;;;;5092223;27;20054;-90
2022/09/29 08:23:18;;;;;;;6.93;4.00;;;;;;;;;;5105074;27;20085;-91
2022/09/29 08:26:07;;;;;;;7.68;3.88;;;;;;;;;;5105185;27;20080;-89
2022/09/29 08:28:54;;;;;;;5.25;3.17;;;;;;;;;;5112950;28;20480;-90
2022/09/29 08:31:49;;;;;;;6.05;3.35;;;;;;;;;;5098928;28;20078;-91
2022/09/29 08:34:37;;;;;;;4.75;2.90;;;;;;;;;;5110103;27;20471;-91
2022/09/29 08:37:22;;;;;;;4.65;3.03;;;;;;;;;;5098945;28;20035;-90
2022/09/29 08:40:09;;;;;;;8.02;3.10;;;;;;;;;;5113268;27;20112;-91
2022/09/29 08:43:23;;;;;;;5.18;3.00;;;;;;;;;;5093857;27;20050;-90
2022/09/29 08:46:31;;;;;;;;;;;;;;;;;;;;;
2022/09/29 08:49:20;;;;;;;4.85;2.88;;;;;;;;;;5113900;28;20059;-91
2022/09/29 08:52:27;;;;;;;4.50;2.90;;;;;;;;;;5099144;27;20510;-90
2022/09/29 08:55:25;;;;;;;;;;;;;;;;;;;;;
2022/09/29 08:58:14;;;;;;;5.25;2.75;;;;;;;;;;5113320;28;20108;-90
2022/09/29 09:01:17;;;;;;;3.78;2.58;;;;;;;;;;5112580;27;20034;-92
2022/09/29 09:04:22;;;;;;;5.25;2.75;;;16.10;99.90;;;;;;5113683;27;20084;-91
2022/09/29 09:07:13;;;;;;;5.57;2.45;;;;;;;;;;5105542;28;20046;-90
2022/09/29 09:10:03;;;;;;;4.60;2.53;;;;;;;;;;5102071;27;20042;-91
2022/09/29 09:12:59;;;;;;;3.67;2.15;;;;;;;;;;5112084;27;20464;-92
2022/09/29 09:15:57;;;;;;;4.28;2.10;;;;;;;;;;5098589;28;20047;-91
2022/09/29 09:18:47;;;;;;;3.13;2.10;;;;;;;;;;5104614;27;20038;-91
2022/09/29 09:21:37;;;;;;;3.65;2.17;;;;;;;;;;5118792;27;20066;-93
2022/09/29 09:24:25;;;;;;;4.80;2.00;;;;;;;;;;5118733;27;20038;-90
2022/09/29 09:27:23;;;;;;;2.80;1.77;;;;;;;;;;5097913;28;20191;-91
2022/09/29 09:30:37;;;;;;;4.07;2.10;;;;;;;;;;5112031;27;20087;-90
2022/09/29 09:33:43;;;;;;;;;;;;;;;;;;;;;
2022/09/29 09:36:45;;;;;;;2.90;1.80;;;;;;;;;;5113496;28;20111;-91
2022/09/29 09:40:02;;;;;;;3.50;1.85;;;;;;;;;;5101861;28;20043;-90
2022/09/29 09:43:09;;;;;;;3.67;1.75;;;;;;;;;;5113358;28;20065;-91
2022/09/29 09:46:19;;;;;;;2.28;1.45;;;;;;;;;;5097434;28;20066;-91
2022/09/29 09:49:24;;;;;;;2.10;1.25;;;;;;;;;;5097238;28;20059;-91
2022/09/29 09:52:38;;;;;;;;;;;;;;;;;;;;;
2022/09/29 09:55:36;;;;;;;;;;;;;;;;;;;;;
2022/09/29 09:58:44;;;;;;;2.10;1.17;;;;;;;;;;5124375;28;19930;-91
2022/09/29 10:01:54;;;;;;;2.70;1.40;;;;;;;;;;5107323;28;20034;-91
2022/09/29 10:04:51;;;;;;;3.60;1.17;;;;;;;;;;5104559;28;20084;-91
2022/09/29 10:07:41;;;;;;;1.10;0.70;;;;;;;;;;5118022;28;20038;-92
2022/09/29 10:10:30;;;;;;;2.03;0.95;;;;;;;;;;5106445;27;20159;-90
2022/09/29 10:13:17;;;;;;;1.42;0.88;;;;;;;;;;5118594;27;20070;-90
2022/09/29 10:16:05;;;;;;;1.52;1.00;;;;;;;;;;5114006;27;20498;-90
2022/09/29 10:18:53;;;;;;;3.05;0.98;;;;;;;;;;5109091;27;20489;-91
2022/09/29 10:21:41;;;;;;;2.08;1.25;;;;;;;;;;5105386;28;20057;-92
2022/09/29 10:24:55;;;;;;;2.05;0.95;;;;;;;;;;5101908;28;20107;-90
2022/09/29 10:27:48;;;;;;;3.63;1.60;;;;;;;;;;5101720;28;20080;-90
2022/09/29 10:30:46;;;;;;;;;;;;;;;;;;;;;
2022/09/29 10:33:31;;;;;;;1.58;0.88;;;;;;;;;;5120957;27;20100;-92
2022/09/29 10:36:19;;;;;;;2.20;1.05;;;;;;;;;;5111834;27;20030;-91
2022/09/29 10:39:23;;;;;;;1.92;0.93;;;;;;;;;;5115837;27;20427;-91
2022/09/29 10:42:55;;;;;;;2.22;1.35;;;;;;;;;;5118697;27;20498;-91
2022/09/29 10:45:47;;;;;;;2.35;1.15;;;;;;;;;;5120571;27;20440;-92
2022/09/29 10:52:07;;;;;;;;;;;;;;;;;;;;;
2022/09/29 10:54:57;;;;;;;1.38;0.80;;;;;;;;;;5116789;28;20042;-93
2022/09/29 10:57:47;;;;;;;2.08;1.30;;;;;;;;;;5120962;27;20038;-91
2022/09/29 11:00:37;;;;;;;2.15;1.25;;;;;;;;;;5121463;27;20042;-91
2022/09/29 11:06:46;;;;;;;4.55;1.52;;;;;;;;;;5108031;27;20041;-92
2022/09/29 11:09:54;;;;;;;;;;;;;;;;;;;;;
2022/09/29 11:12:44;;;;;;;1.92;0.90;;;;;;;;;;5128997;27;20033;-91
2022/09/29 11:15:47;;;;;;;2.70;0.98;;;;;;;;;;5108159;27;20505;-92
2022/09/29 11:18:35;;;;;;;4.57;1.17;;;;;;;;;;5116442;27;20084;-90
2022/09/29 11:21:27;;;;;;;2.13;0.80;;;;;;;;;;5099553;28;20066;-90
2022/09/29 11:24:47;;;;;;;1.08;0.75;;;;;;;;;;5100544;28;20089;-91
2022/09/29 11:27:42;;;;;;;1.38;0.82;;;;;;;;;;5100946;28;20065;-92
2022/09/29 11:30:49;;;;;;;1.55;0.80;;;;;;;;;;5119627;27;20407;-90
2022/09/29 11:33:52;;;;;;;1.00;0.68;;;;;;;;;;5120955;27;20045;-90
2022/09/29 11:36:56;;;;;;;1.45;0.75;;;;;;;;;;5114956;28;20540;-88
2022/09/29 11:40:01;;;;;;;1.25;0.60;;;;;;;;;;5100217;28;20525;-91
2022/09/29 11:42:46;;;;;;;0.68;0.50;;;;;;;;;;5108739;27;20038;-89
2022/09/29 11:45:38;;;;;;;1.05;0.70;;;;;;;;;;5117316;27;20046;-92
2022/09/29 11:48:55;;;;;;;2.80;0.60;;;;;;;;;;5099655;28;20085;-91
2022/09/29 11:51:59;;;;;;;0.63;0.40;;;;;;;;;;5095074;28;20055;-92
2022/09/29 11:54:57;;;;;;;0.85;0.60;;;;;;;;;;5100200;28;20042;-89
2022/09/29 11:57:43;;;;;;;3.60;0.93;;;;;;;;;;5113911;27;20072;-91
2022/09/29 12:00:52;;;;;;;0.98;0.70;;;;;;;;;;5099417;28;20035;-90
2022/09/29 12:03:42;;;;;;;0.60;0.50;;;;;;;;;;5111547;27;20119;-90
2022/09/29 12:06:42;;;;;;;0.73;0.45;;;;;;;;;;5099696;28;20035;-90
2022/09/29 12:09:40;;;;;;;0.90;0.55;;;;;;;;;;5113372;27;20118;-89
2022/09/29 12:12:39;;;;;;;1.77;0.73;;;;;;;;;;5109715;27;20038;-90
2022/09/29 12:15:42;;;;;;;0.75;0.45;;;;;;;;;;5099009;28;20039;-90
2022/09/29 12:19:03;;;;;;;0.65;0.55;;;;;;;;;;5117369;27;20038;-89
2022/09/29 12:21:49;;;;;;;1.30;0.60;;;;;;;;;;5131668;27;20038;-90
2022/09/29 12:24:38;;;;;;;0.70;0.47;;;;;;;;;;5098922;28;20058;-90
2022/09/29 12:27:49;;;;;;;1.00;0.50;;;;;;;;;;5106949;27;20033;-90
2022/09/29 12:30:50;;;;;;;1.55;0.80;;;;;;;;;;5105334;27;20314;-90
2022/09/29 12:33:38;;;;;;;2.22;0.68;;;;;;;;;;5103971;27;20062;-90
2022/09/29 12:36:52;;;;;;;0.57;0.50;;;;;;;;;;5119492;27;20070;-90
2022/09/29 12:39:59;;;;;;;0.55;0.50;;;;;;;;;;5119096;27;20140;-90
2022/09/29 12:42:56;;;;;;;3.55;0.80;;;;;;;;;;5119318;27;20124;-90
2022/09/29 12:45:47;;;;;;;0.75;0.50;;;;;;;;;;5114759;27;20030;-89
2022/09/29 12:49:21;;;;;;;;;;;;;;;;;;;;;
2022/09/29 12:52:15;;;;;;;;;;;17.60;99.90;;;;;;5129795;27;20038;-91
2022/09/29 12:55:02;;;;;;;0.65;0.50;;;;;;;;;;5118887;27;20480;-90
2022/09/29 12:57:49;;;;;;;0.85;0.50;;;;;;;;;;5118759;27;20110;-90
2022/09/29 13:00:42;;;;;;;1.02;0.70;;;;;;;;;;5117519;27;20122;-90
2022/09/29 13:03:39;;;;;;;2.53;0.60;;;;;;;;;;5108986;27;20030;-88
2022/09/29 13:06:32;;;;;;;1.13;0.50;;;;;;;;;;5118488;27;20034;-90
2022/09/29 13:09:54;;;;;;;1.25;0.55;;;17.40;99.90;;;;;;5115962;27;20076;-90
2022/09/29 13:12:38;;;;;;;0.82;0.50;;;;;;;;;;5110336;27;20057;-90
2022/09/29 13:15:29;;;;;;;1.42;0.65;;;;;;;;;;5097704;28;20107;-90
2022/09/29 13:18:20;;;;;;;0.63;0.50;;;;;;;;;;5112207;27;20042;-89
2022/09/29 13:21:33;;;;;;;0.50;0.50;;;16.80;99.90;;;;;;5098090;28;20039;-88
2022/09/29 13:24:29;;;;;;;1.98;0.85;;;;;;;;;;5108400;27;20088;-89
2022/09/29 13:27:24;;;;;;;1.42;0.60;;;;;;;;;;5098054;28;20039;-89
2022/09/29 13:30:13;;;;;;;0.70;0.52;;;;;;;;;;5097749;28;20081;-90
2022/09/29 13:33:04;;;;;;;0.40;0.40;;;;;;;;;;5098031;28;20038;-89
2022/09/29 13:35:55;;;;;;;0.77;0.50;;;;;;;;;;5105108;27;20043;-88
2022/09/29 13:38:46;;;;;;;0.40;0.40;;;;;;;;;;5117779;27;20058;-89
2022/09/29 13:41:31;;;;;;;1.58;0.70;;;;;;;;;;5117858;27;20042;-88
2022/09/29 13:44:18;;;;;;;0.65;0.45;;;;;;;;;;5104142;27;20038;-90
2022/09/29 13:47:25;;;;;;;1.27;0.70;;;;;;;;;;5103780;28;20077;-89
2022/09/29 13:50:47;;;;;;;0.60;0.57;;;15.80;99.90;;;;;;5104618;28;20082;-88
2022/09/29 13:53:36;;;;;;;1.52;0.60;;;;;;;;;;5097310;28;20035;-89
2022/09/29 13:56:23;;;;;;;1.45;0.50;;;;;;;;;;5097604;28;20065;-89
2022/09/29 13:59:17;;;;;;;0.65;0.50;;;;;;;;;;5114814;28;20085;-89
2022/09/29 14:02:17;;;;;;;1.48;0.63;;;;;;;;;;5118031;28;20110;-89
2022/09/29 14:05:03;;;;;;;0.80;0.60;;;;;;;;;;5097575;28;20035;-89
2022/09/29 14:07:57;;;;;;;0.50;0.50;;;;;;;;;;5115808;28;20272;-88
2022/09/29 14:10:46;;;;;;;1.42;0.60;;;;;;;;;;5117396;28;20161;-87
2022/09/29 14:13:39;;;;;;;0.50;0.50;;;;;;;;;;5112069;28;20062;-89
2022/09/29 14:16:27;;;;;;;0.80;0.55;;;;;;;;;;5111635;28;20087;-89
2022/09/29 14:19:43;;;;;;;;;;;;;;;;;;;;;
2022/09/29 14:22:33;;;;;;;1.65;0.60;;;;;;;;;;5112796;28;20030;-87
2022/09/29 14:25:18;;;;;;;1.20;0.77;;;;;;;;;;5101695;28;20083;-87
2022/09/29 14:28:07;;;;;;;1.58;0.85;;;;;;;;;;5117739;28;20432;-88
2022/09/29 14:30:53;;;;;;;1.33;0.60;;;;;;;;;;5124600;28;20113;-88
2022/09/29 14:33:58;;;;;;;1.35;0.73;;;;;;;;;;5099851;28;20076;-87
2022/09/29 14:36:45;;;;;;;1.27;1.02;;;;;;;;;;5102341;28;20042;-87
2022/09/29 14:39:30;;;;;;;1.50;0.80;;;;;;;;;;5106834;28;20540;-88
2022/09/29 14:42:20;;;;;;;1.20;0.85;;;;;;;;;;5099110;28;20035;-88
2022/09/29 14:54:42;;;;;;;1.48;0.95;;;;;;;;;;5112327;28;20034;-89
2022/09/29 14:57:45;;;;;;;1.20;0.70;;;;;;;;;;5103516;27;20133;-88
2022/09/29 15:00:38;;;;;;;0.80;0.63;;;;;;;;;;5120992;27;20042;-88
2022/09/29 15:03:28;;;;;;;2.88;0.80;;;;;;;;;;5105208;28;20119;-88
2022/09/29 15:06:17;;;;;;;2.20;1.00;;;;;;;;;;5105742;27;20029;-87
2022/09/29 15:09:03;;;;;;;0.77;0.75;;;;;;;;;;5121902;27;20119;-89
2022/09/29 15:11:55;;;;;;;1.52;0.73;;;;;;;;;;5114330;27;20156;-89
2022/09/29 15:14:42;;;;;;;1.48;0.60;;;;;;;;;;5099896;28;20042;-89
2022/09/29 15:17:37;;;;;;;0.70;0.60;;;;;;;;;;5086013;28;20544;-88
2022/09/29 15:20:26;;;;;;;0.80;0.57;;;;;;;;;;5121530;27;20070;-88
2022/09/29 15:23:20;;;;;;;0.90;0.60;;;;;;;;;;5119858;27;20493;-87
2022/09/29 15:26:05;;;;;;;0.77;0.57;;;;;;;;;;5111492;27;20070;-87
2022/09/29 15:28:49;;;;;;;1.70;0.60;;;;;;;;;;5115592;27;20046;-87
2022/09/29 15:31:45;;;;;;;0.60;0.55;;;;;;;;;;5100222;28;20088;-89
2022/09/29 15:34:30;;;;;;;2.25;0.73;;;;;;;;;;5110447;27;20038;-87
2022/09/29 15:37:18;;;;;;;0.52;0.50;;;;;;;;;;5105915;27;20034;-87
2022/09/29 15:40:05;;;;;;;0.98;0.70;;;;;;;;;;5119853;27;20092;-87
2022/09/29 15:42:54;;;;;;;0.57;0.50;;;;;;;;;;5105562;27;20042;-87
2022/09/29 15:45:51;;;;;;;0.73;0.60;;;;;;;;;;5120144;27;20084;-87
2022/09/29 15:48:36;;;;;;;1.23;0.68;;;;;;;;;;5119489;27;20509;-87
2022/09/29 15:51:23;;;;;;;0.75;0.63;;;;;;;;;;5094465;27;20076;-88
2022/09/29 15:54:10;;;;;;;0.50;0.50;;;;;;;;;;5116990;27;20035;-87
2022/09/29 16:00:00;;;;;;;0.65;0.55;;;;;;;;;;5124619;27;20068;-85
2022/09/29 16:02:45;;;;;;;0.88;0.60;;;;;;;;;;5114412;27;20515;-89
2022/09/29 16:05:35;;;;;;;1.27;0.80;;;;;;;;;;5113480;27;20050;-86
2022/09/29 16:08:21;;;;;;;1.50;1.00;;;;;;;;;;5113579;28;20042;-82
2022/09/29 16:11:19;;;;;;;1.88;0.90;;;;;;;;;;5098742;28;20277;-86
2022/09/29 16:14:11;;;;;;;1.90;1.00;;;;;;;;;;5108734;27;20065;-86
2022/09/29 16:16:56;;;;;;;1.85;0.90;;;;;;;;;;5114531;27;20114;-86
2022/09/29 16:19:42;;;;;;;1.33;0.75;;;;;;;;;;5099125;27;20085;-87
2022/09/29 16:22:29;;;;;;;1.83;1.10;;;;;;;;;;5114419;28;20081;-86
2022/09/29 16:25:27;;;;;;;1.45;0.90;;;;;;;;;;5113320;27;20031;-86
2022/09/29 16:28:23;;;;;;;1.23;0.80;;;;;;;;;;5098824;28;20062;-87
2022/09/29 16:31:18;;;;;;;1.52;0.73;;;;;;;;;;5119141;27;20075;-86
2022/09/29 16:34:03;;;;;;;1.88;0.90;;;;;;;;;;5119426;27;20053;-87
2022/09/29 16:37:05;;;;;;;7.07;3.55;;;;;;;;;;5118242;27;20135;-87
2022/09/29 16:39:56;;;;;;;3.38;1.70;;;;;;;;;;5098722;28;20081;-87
2022/09/29 16:42:41;;;;;;;3.65;1.73;;;;;;;;;;5099816;28;20097;-87
2022/09/29 16:45:29;;;;;;;1.35;0.80;;;;;;;;;;5100618;27;20080;-87
2022/09/29 16:48:13;;;;;;;1.58;0.85;;;;;;;;;;5118469;27;20034;-86
2022/09/29 16:51:00;;;;;;;1.52;0.73;;;;;;;;;;5098366;27;20411;-87
2022/09/29 16:53:46;;;;;;;1.20;0.75;;;;;;;;;;5112652;27;20038;-87
2022/09/29 16:56:33;;;;;;;1.00;0.70;;;;;;;;;;5097985;28;20109;-89
2022/09/29 16:59:20;;;;;;;2.50;0.70;;;;;;;;;;5120441;27;20099;-86
2022/09/29 17:02:09;;;;;;;1.17;0.75;;;;;;;;;;5114823;27;20088;-86
2022/09/29 17:04:57;;;;;;;1.27;0.68;;;;;;;;;;5122821;27;20399;-86
2022/09/29 17:07:42;;;;;;;1.42;0.90;;;;;;;;;;5133217;27;20038;-87
2022/09/29 17:10:29;;;;;;;0.80;0.65;;;;;;;;;;5103758;27;20042;-86
2022/09/29 17:13:15;;;;;;;0.85;0.70;;;;;;;;;;5109091;27;20060;-86
2022/09/29 17:15:59;;;;;;;1.90;0.90;;;;;;;;;;5112705;28;20042;-86
2022/09/29 17:18:44;;;;;;;0.95;0.75;;;;;;;;;;5119254;27;20046;-87
2022/09/29 17:21:29;;;;;;;1.00;0.73;;;;;;;;;;5088317;28;20039;-87
2022/09/29 17:24:13;;;;;;;0.73;0.60;;;;;;;;;;5106990;27;20106;-87
2022/09/29 17:30:03;;;;;;;1.17;0.57;;;;;;;;;;5101314;27;20522;-87
2022/09/29 17:32:49;;;;;;;0.70;0.60;;;;;;;;;;5109382;28;20050;-89
2022/09/29 17:35:35;;;;;;;0.80;0.65;;;;;;;;;;5098257;27;20079;-88
2022/09/29 17:38:20;;;;;;;0.50;0.50;;;;;;;;;;5117228;27;20546;-88
2022/09/29 17:41:05;;;;;;;1.42;0.82;;;;;;;;;;5108917;28;20038;-88
2022/09/29 17:43:52;;;;;;;1.13;0.77;;;;;;;;;;5112343;27;20042;-89
2022/09/29 17:46:37;;;;;;;1.55;0.70;;;;;;;;;;5095647;28;20067;-87
2022/09/29 17:49:21;;;;;;;0.95;0.65;;;;;;;;;;5110778;28;20054;-88
2022/09/29 17:52:08;;;;;;;2.67;0.95;;;;;;;;;;5111808;28;20053;-88
2022/09/29 17:54:53;;;;;;;1.98;0.98;;;;;;;;;;5108125;28;20114;-88
2022/09/29 17:57:38;;;;;;;1.95;1.10;;;;;;;;;;5098837;28;20081;-88
2022/09/29 18:00:32;;;;;;;2.67;0.90;;;;;;;;;;5112659;28;20204;-88